sensor_id;sensor_type;location;lat;lon;timestamp;pressure;altitude;pressure_sealevel;temperature;humidity
47811;BME280;33575;52.600;7.318;2023-02-28T00:00:14;102988.33;;;1.28;87.25
47811;BME280;33575;52.600;7.318;2023-02-28T00:02:46;102986.30;;;1.29;87.36
47811;BME280;33575;52.600;7.318;2023-02-28T00:05:18;102981.67;;;1.27;87.65
47811;BME280;33575;52.600;7.318;2023-02-28T00:07:46;102980.06;;;1.33;87.33
47811;BME280;33575;52.600;7.318;2023-02-28T00:10:18;102989.28;;;1.41;87.05
47811;BME280;33575;52.600;7.318;2023-02-28T00:12:47;102983.76;;;1.46;86.89
47811;BME280;33575;52.600;7.318;2023-02-28T00:15:18;102982.82;;;1.50;86.15
47811;BME280;33575;52.600;7.318;2023-02-28T00:17:49;102980.68;;;1.45;86.03
47811;BME280;33575;52.600;7.318;2023-02-28T00:20:19;102985.55;;;1.45;86.13
47811;BME280;33575;52.600;7.318;2023-02-28T00:22:51;102982.53;;;1.44;85.99
47811;BME280;33575;52.600;7.318;2023-02-28T00:25:21;102980.42;;;1.43;86.15
47811;BME280;33575;52.600;7.318;2023-02-28T00:27:50;102982.46;;;1.45;86.41
47811;BME280;33575;52.600;7.318;2023-02-28T00:30:22;102987.87;;;1.49;86.56
47811;BME280;33575;52.600;7.318;2023-02-28T00:32:51;102990.22;;;1.52;86.70
47811;BME280;33575;52.600;7.318;2023-02-28T00:35:22;102985.36;;;1.56;86.29
47811;BME280;33575;52.600;7.318;2023-02-28T00:37:52;102984.32;;;1.55;86.13
47811;BME280;33575;52.600;7.318;2023-02-28T00:40:23;102984.22;;;1.53;86.38
47811;BME280;33575;52.600;7.318;2023-02-28T00:42:55;102987.54;;;1.55;86.59
47811;BME280;33575;52.600;7.318;2023-02-28T00:45:25;102983.77;;;1.59;86.53
47811;BME280;33575;52.600;7.318;2023-02-28T00:47:56;102984.38;;;1.62;86.49
47811;BME280;33575;52.600;7.318;2023-02-28T00:50:27;102980.92;;;1.64;86.61
47811;BME280;33575;52.600;7.318;2023-02-28T00:52:58;102983.24;;;1.63;86.62
47811;BME280;33575;52.600;7.318;2023-02-28T00:55:28;102978.13;;;1.62;86.79
47811;BME280;33575;52.600;7.318;2023-02-28T00:57:59;102973.86;;;1.66;86.68
47811;BME280;33575;52.600;7.318;2023-02-28T01:00:30;102974.51;;;1.71;86.07
47811;BME280;33575;52.600;7.318;2023-02-28T01:03:00;102977.63;;;1.71;85.99
47811;BME280;33575;52.600;7.318;2023-02-28T01:05:30;102978.50;;;1.70;85.40
47811;BME280;33575;52.600;7.318;2023-02-28T01:08:01;102981.08;;;1.69;85.98
47811;BME280;33575;52.600;7.318;2023-02-28T01:10:31;102972.50;;;1.70;85.93
47811;BME280;33575;52.600;7.318;2023-02-28T01:13:01;102970.54;;;1.74;86.03
47811;BME280;33575;52.600;7.318;2023-02-28T01:15:32;102968.46;;;1.73;86.54
47811;BME280;33575;52.600;7.318;2023-02-28T01:18:02;102971.46;;;1.74;86.57
47811;BME280;33575;52.600;7.318;2023-02-28T01:20:36;102973.04;;;1.80;86.29
47811;BME280;33575;52.600;7.318;2023-02-28T01:23:04;102970.71;;;1.83;86.37
47811;BME280;33575;52.600;7.318;2023-02-28T01:25:35;102976.61;;;1.85;85.95
47811;BME280;33575;52.600;7.318;2023-02-28T01:28:05;102984.42;;;1.88;85.76
47811;BME280;33575;52.600;7.318;2023-02-28T01:30:35;102989.76;;;1.89;86.00
47811;BME280;33575;52.600;7.318;2023-02-28T01:33:05;102980.76;;;1.90;85.99
47811;BME280;33575;52.600;7.318;2023-02-28T01:35:36;102979.11;;;1.91;85.80
47811;BME280;33575;52.600;7.318;2023-02-28T01:38:11;102975.09;;;1.92;85.76
47811;BME280;33575;52.600;7.318;2023-02-28T01:40:37;102976.95;;;1.92;85.38
47811;BME280;33575;52.600;7.318;2023-02-28T01:43:16;102972.16;;;1.95;85.32
47811;BME280;33575;52.600;7.318;2023-02-28T01:45:38;102975.05;;;1.95;84.92
47811;BME280;33575;52.600;7.318;2023-02-28T01:48:08;102976.01;;;1.97;84.82
47811;BME280;33575;52.600;7.318;2023-02-28T01:50:42;102978.89;;;2.00;85.02
47811;BME280;33575;52.600;7.318;2023-02-28T01:53:13;102969.32;;;2.01;85.23
47811;BME280;33575;52.600;7.318;2023-02-28T01:55:40;102975.51;;;1.99;84.30
47811;BME280;33575;52.600;7.318;2023-02-28T01:58:10;102974.89;;;1.97;84.44
47811;BME280;33575;52.600;7.318;2023-02-28T02:00:41;102977.27;;;1.94;83.98
47811;BME280;33575;52.600;7.318;2023-02-28T02:03:14;102975.72;;;1.87;83.79
47811;BME280;33575;52.600;7.318;2023-02-28T02:05:43;102975.81;;;1.83;84.06
47811;BME280;33575;52.600;7.318;2023-02-28T02:08:17;102968.93;;;1.83;85.01
47811;BME280;33575;52.600;7.318;2023-02-28T02:10:45;102966.27;;;1.86;85.02
47811;BME280;33575;52.600;7.318;2023-02-28T02:13:25;102969.36;;;1.87;84.37
47811;BME280;33575;52.600;7.318;2023-02-28T02:15:52;102973.69;;;1.85;84.44
47811;BME280;33575;52.600;7.318;2023-02-28T02:18:22;102970.53;;;1.84;84.49
47811;BME280;33575;52.600;7.318;2023-02-28T02:23:26;102963.91;;;1.87;84.20
47811;BME280;33575;52.600;7.318;2023-02-28T02:25:50;102966.68;;;1.86;84.53
47811;BME280;33575;52.600;7.318;2023-02-28T02:33:26;102970.89;;;1.98;85.05
47811;BME280;33575;52.600;7.318;2023-02-28T02:35:51;102965.07;;;2.01;84.93
47811;BME280;33575;52.600;7.318;2023-02-28T02:38:25;102968.45;;;2.08;84.70
47811;BME280;33575;52.600;7.318;2023-02-28T02:40:53;102970.95;;;2.13;84.57
47811;BME280;33575;52.600;7.318;2023-02-28T02:43:21;102971.59;;;2.19;84.60
47811;BME280;33575;52.600;7.318;2023-02-28T02:45:53;102971.20;;;2.22;84.40
47811;BME280;33575;52.600;7.318;2023-02-28T02:48:23;102967.78;;;2.17;84.38
47811;BME280;33575;52.600;7.318;2023-02-28T02:50:54;102965.86;;;2.09;84.61
47811;BME280;33575;52.600;7.318;2023-02-28T02:53:23;102963.39;;;2.09;84.79
47811;BME280;33575;52.600;7.318;2023-02-28T02:55:52;102956.91;;;2.15;84.68
47811;BME280;33575;52.600;7.318;2023-02-28T02:58:24;102954.09;;;2.21;84.67
47811;BME280;33575;52.600;7.318;2023-02-28T03:00:54;102953.73;;;2.22;84.56
47811;BME280;33575;52.600;7.318;2023-02-28T03:03:23;102951.82;;;2.23;84.49
47811;BME280;33575;52.600;7.318;2023-02-28T03:05:52;102960.56;;;2.22;84.70
47811;BME280;33575;52.600;7.318;2023-02-28T03:08:22;102966.80;;;2.22;84.68
47811;BME280;33575;52.600;7.318;2023-02-28T03:10:57;102970.11;;;2.26;84.65
47811;BME280;33575;52.600;7.318;2023-02-28T03:16:07;102972.61;;;2.29;84.43
47811;BME280;33575;52.600;7.318;2023-02-28T03:18:32;102969.83;;;2.32;84.54
47811;BME280;33575;52.600;7.318;2023-02-28T03:21:01;102965.07;;;2.34;84.46
47811;BME280;33575;52.600;7.318;2023-02-28T03:23:34;102960.52;;;2.37;84.39
47811;BME280;33575;52.600;7.318;2023-02-28T03:26:03;102961.30;;;2.40;84.41
47811;BME280;33575;52.600;7.318;2023-02-28T03:28:32;102961.36;;;2.41;84.19
47811;BME280;33575;52.600;7.318;2023-02-28T03:31:04;102961.23;;;2.41;84.12
47811;BME280;33575;52.600;7.318;2023-02-28T03:33:33;102960.58;;;2.42;83.86
47811;BME280;33575;52.600;7.318;2023-02-28T03:36:05;102960.19;;;2.41;83.91
47811;BME280;33575;52.600;7.318;2023-02-28T03:38:35;102963.47;;;2.38;83.16
47811;BME280;33575;52.600;7.318;2023-02-28T03:41:06;102960.64;;;2.32;83.84
47811;BME280;33575;52.600;7.318;2023-02-28T03:43:38;102958.77;;;2.32;84.24
47811;BME280;33575;52.600;7.318;2023-02-28T03:46:08;102958.29;;;2.29;84.55
47811;BME280;33575;52.600;7.318;2023-02-28T03:48:38;102964.67;;;2.41;96.94
47811;BME280;33575;52.600;7.318;2023-02-28T03:51:07;102967.56;;;2.41;89.49
47811;BME280;33575;52.600;7.318;2023-02-28T03:53:37;102963.62;;;2.22;85.43
47811;BME280;33575;52.600;7.318;2023-02-28T03:56:09;102961.98;;;1.98;83.36
47811;BME280;33575;52.600;7.318;2023-02-28T03:58:39;102958.96;;;1.74;84.14
47811;BME280;33575;52.600;7.318;2023-02-28T04:01:09;102961.44;;;1.57;84.52
47811;BME280;33575;52.600;7.318;2023-02-28T04:03:38;102957.24;;;1.44;85.61
47811;BME280;33575;52.600;7.318;2023-02-28T04:06:14;102959.35;;;1.35;86.22
47811;BME280;33575;52.600;7.318;2023-02-28T04:08:39;102960.15;;;1.31;86.14
47811;BME280;33575;52.600;7.318;2023-02-28T04:11:18;102961.51;;;1.25;86.13
47811;BME280;33575;52.600;7.318;2023-02-28T04:13:39;102955.56;;;1.21;86.85
47811;BME280;33575;52.600;7.318;2023-02-28T04:16:10;102952.98;;;1.17;87.25
47811;BME280;33575;52.600;7.318;2023-02-28T04:18:41;102958.63;;;1.22;87.17
47811;BME280;33575;52.600;7.318;2023-02-28T04:21:12;102962.87;;;1.28;87.50
47811;BME280;33575;52.600;7.318;2023-02-28T04:23:42;102966.61;;;1.33;87.45
47811;BME280;33575;52.600;7.318;2023-02-28T04:26:13;102963.08;;;1.35;86.96
47811;BME280;33575;52.600;7.318;2023-02-28T04:28:43;102963.71;;;1.40;86.84
47811;BME280;33575;52.600;7.318;2023-02-28T04:31:14;102964.20;;;1.45;86.47
47811;BME280;33575;52.600;7.318;2023-02-28T04:33:44;102961.70;;;1.44;86.39
47811;BME280;33575;52.600;7.318;2023-02-28T04:36:15;102960.27;;;1.46;86.50
47811;BME280;33575;52.600;7.318;2023-02-28T04:38:46;102957.03;;;1.44;86.55
47811;BME280;33575;52.600;7.318;2023-02-28T04:41:17;102954.81;;;1.45;86.52
47811;BME280;33575;52.600;7.318;2023-02-28T04:43:47;102956.36;;;1.40;85.00
47811;BME280;33575;52.600;7.318;2023-02-28T04:46:18;102961.83;;;1.33;84.96
47811;BME280;33575;52.600;7.318;2023-02-28T04:48:48;102962.86;;;1.31;84.97
47811;BME280;33575;52.600;7.318;2023-02-28T04:51:18;102963.21;;;1.21;85.09
47811;BME280;33575;52.600;7.318;2023-02-28T04:53:49;102962.86;;;1.12;85.68
47811;BME280;33575;52.600;7.318;2023-02-28T04:56:19;102963.62;;;1.04;85.74
47811;BME280;33575;52.600;7.318;2023-02-28T04:58:49;102964.46;;;0.97;85.77
47811;BME280;33575;52.600;7.318;2023-02-28T05:01:22;102966.60;;;0.89;86.34
47811;BME280;33575;52.600;7.318;2023-02-28T05:03:52;102965.81;;;0.86;86.44
47811;BME280;33575;52.600;7.318;2023-02-28T05:06:22;102961.05;;;0.88;86.82
47811;BME280;33575;52.600;7.318;2023-02-28T05:08:51;102965.37;;;0.95;87.29
47811;BME280;33575;52.600;7.318;2023-02-28T05:11:25;102964.64;;;1.02;87.53
47811;BME280;33575;52.600;7.318;2023-02-28T05:13:52;102960.02;;;1.08;87.44
47811;BME280;33575;52.600;7.318;2023-02-28T05:16:22;102960.90;;;1.14;86.88
47811;BME280;33575;52.600;7.318;2023-02-28T05:18:52;102961.21;;;1.19;87.41
47811;BME280;33575;52.600;7.318;2023-02-28T05:21:26;102957.96;;;1.22;86.96
47811;BME280;33575;52.600;7.318;2023-02-28T05:23:54;102958.44;;;1.21;86.66
47811;BME280;33575;52.600;7.318;2023-02-28T05:26:25;102963.78;;;1.22;86.45
47811;BME280;33575;52.600;7.318;2023-02-28T05:28:54;102969.44;;;1.22;87.10
47811;BME280;33575;52.600;7.318;2023-02-28T05:31:25;102973.29;;;1.22;87.28
47811;BME280;33575;52.600;7.318;2023-02-28T05:33:55;102975.64;;;1.24;87.20
47811;BME280;33575;52.600;7.318;2023-02-28T05:36:26;102978.43;;;1.27;86.72
47811;BME280;33575;52.600;7.318;2023-02-28T05:38:56;102977.49;;;1.31;86.59
47811;BME280;33575;52.600;7.318;2023-02-28T05:41:26;102977.31;;;1.34;86.69
47811;BME280;33575;52.600;7.318;2023-02-28T05:43:57;102983.50;;;1.34;87.33
47811;BME280;33575;52.600;7.318;2023-02-28T05:46:27;102984.27;;;1.34;86.73
47811;BME280;33575;52.600;7.318;2023-02-28T05:48:57;102988.46;;;1.37;86.37
47811;BME280;33575;52.600;7.318;2023-02-28T05:51:28;102992.89;;;1.37;86.70
47811;BME280;33575;52.600;7.318;2023-02-28T05:53:59;102993.06;;;1.39;86.73
47811;BME280;33575;52.600;7.318;2023-02-28T05:56:28;102994.49;;;1.43;86.53
47811;BME280;33575;52.600;7.318;2023-02-28T05:58:58;102994.48;;;1.48;86.16
47811;BME280;33575;52.600;7.318;2023-02-28T06:01:33;102995.85;;;1.55;86.22
47811;BME280;33575;52.600;7.318;2023-02-28T06:04:01;102994.23;;;1.59;85.74
47811;BME280;33575;52.600;7.318;2023-02-28T06:06:31;102995.24;;;1.64;85.61
47811;BME280;33575;52.600;7.318;2023-02-28T06:09:02;102999.46;;;1.67;85.78
47811;BME280;33575;52.600;7.318;2023-02-28T06:11:32;103001.63;;;1.73;85.99
47811;BME280;33575;52.600;7.318;2023-02-28T06:14:03;103001.82;;;1.78;85.82
47811;BME280;33575;52.600;7.318;2023-02-28T06:16:34;103003.60;;;1.82;85.62
47811;BME280;33575;52.600;7.318;2023-02-28T06:19:04;103004.78;;;1.82;85.62
47811;BME280;33575;52.600;7.318;2023-02-28T06:21:34;103006.28;;;1.84;85.39
47811;BME280;33575;52.600;7.318;2023-02-28T06:24:06;103006.51;;;1.82;84.68
47811;BME280;33575;52.600;7.318;2023-02-28T06:26:36;103010.30;;;1.74;85.87
47811;BME280;33575;52.600;7.318;2023-02-28T06:29:06;103015.39;;;1.74;85.10
47811;BME280;33575;52.600;7.318;2023-02-28T06:31:36;103019.46;;;1.74;85.10
47811;BME280;33575;52.600;7.318;2023-02-28T06:34:06;103019.22;;;1.70;85.71
47811;BME280;33575;52.600;7.318;2023-02-28T06:36:37;103019.46;;;1.71;85.49
47811;BME280;33575;52.600;7.318;2023-02-28T06:39:08;103024.26;;;1.70;86.32
47811;BME280;33575;52.600;7.318;2023-02-28T06:41:43;103026.39;;;1.68;86.57
47811;BME280;33575;52.600;7.318;2023-02-28T06:44:12;103028.28;;;1.74;97.59
47811;BME280;33575;52.600;7.318;2023-02-28T06:46:39;103028.34;;;1.78;90.57
47811;BME280;33575;52.600;7.318;2023-02-28T06:49:09;103035.69;;;1.63;88.83
47811;BME280;33575;52.600;7.318;2023-02-28T06:51:42;103038.13;;;1.49;87.59
47811;BME280;33575;52.600;7.318;2023-02-28T06:54:10;103045.11;;;1.36;87.27
47811;BME280;33575;52.600;7.318;2023-02-28T06:56:40;103041.48;;;1.19;87.27
47811;BME280;33575;52.600;7.318;2023-02-28T06:59:10;103043.89;;;1.09;88.26
47811;BME280;33575;52.600;7.318;2023-02-28T07:01:40;103044.24;;;1.00;88.36
47811;BME280;33575;52.600;7.318;2023-02-28T07:04:11;103044.23;;;0.92;89.08
47811;BME280;33575;52.600;7.318;2023-02-28T07:06:41;103049.53;;;0.94;89.20
47811;BME280;33575;52.600;7.318;2023-02-28T07:09:11;103050.02;;;0.94;89.42
47811;BME280;33575;52.600;7.318;2023-02-28T07:11:42;103049.56;;;0.95;89.49
47811;BME280;33575;52.600;7.318;2023-02-28T07:14:12;103051.17;;;1.01;89.56
47811;BME280;33575;52.600;7.318;2023-02-28T07:16:42;103051.12;;;1.09;89.50
47811;BME280;33575;52.600;7.318;2023-02-28T07:19:12;103052.35;;;1.15;89.49
47811;BME280;33575;52.600;7.318;2023-02-28T07:21:43;103060.31;;;1.22;89.39
47811;BME280;33575;52.600;7.318;2023-02-28T07:24:13;103061.89;;;1.27;89.01
47811;BME280;33575;52.600;7.318;2023-02-28T07:26:44;103060.94;;;1.30;89.00
47811;BME280;33575;52.600;7.318;2023-02-28T07:29:15;103060.10;;;1.39;88.60
47811;BME280;33575;52.600;7.318;2023-02-28T07:31:45;103059.72;;;1.47;88.53
47811;BME280;33575;52.600;7.318;2023-02-28T07:34:16;103057.98;;;1.54;88.16
47811;BME280;33575;52.600;7.318;2023-02-28T07:36:46;103055.50;;;1.58;87.63
47811;BME280;33575;52.600;7.318;2023-02-28T07:39:16;103058.53;;;1.60;87.11
47811;BME280;33575;52.600;7.318;2023-02-28T07:41:47;103058.45;;;1.63;87.05
47811;BME280;33575;52.600;7.318;2023-02-28T07:44:18;103055.72;;;1.64;86.52
47811;BME280;33575;52.600;7.318;2023-02-28T07:46:49;103058.10;;;1.63;86.42
47811;BME280;33575;52.600;7.318;2023-02-28T07:49:18;103061.60;;;1.63;86.58
47811;BME280;33575;52.600;7.318;2023-02-28T07:51:49;103063.93;;;1.61;86.53
47811;BME280;33575;52.600;7.318;2023-02-28T07:54:20;103065.64;;;1.64;86.38
47811;BME280;33575;52.600;7.318;2023-02-28T07:56:51;103067.68;;;1.70;86.39
47811;BME280;33575;52.600;7.318;2023-02-28T07:59:21;103070.28;;;1.76;86.02
47811;BME280;33575;52.600;7.318;2023-02-28T08:01:51;103069.08;;;1.80;85.86
47811;BME280;33575;52.600;7.318;2023-02-28T08:04:22;103067.67;;;1.86;86.00
47811;BME280;33575;52.600;7.318;2023-02-28T08:06:52;103066.20;;;1.94;85.53
47811;BME280;33575;52.600;7.318;2023-02-28T08:09:23;103068.74;;;1.98;85.04
47811;BME280;33575;52.600;7.318;2023-02-28T08:11:54;103071.10;;;1.97;84.41
47811;BME280;33575;52.600;7.318;2023-02-28T08:14:24;103072.41;;;2.00;84.43
47811;BME280;33575;52.600;7.318;2023-02-28T08:16:54;103072.52;;;1.99;84.26
47811;BME280;33575;52.600;7.318;2023-02-28T08:19:25;103073.43;;;2.02;84.37
47811;BME280;33575;52.600;7.318;2023-02-28T08:21:56;103077.66;;;2.03;84.79
47811;BME280;33575;52.600;7.318;2023-02-28T08:24:26;103080.37;;;2.05;84.74
47811;BME280;33575;52.600;7.318;2023-02-28T08:26:56;103078.40;;;2.10;84.58
47811;BME280;33575;52.600;7.318;2023-02-28T08:29:26;103081.40;;;2.14;84.76
47811;BME280;33575;52.600;7.318;2023-02-28T08:31:57;103077.97;;;2.16;83.80
47811;BME280;33575;52.600;7.318;2023-02-28T08:34:27;103076.31;;;2.19;83.30
47811;BME280;33575;52.600;7.318;2023-02-28T08:36:58;103073.80;;;2.21;82.95
47811;BME280;33575;52.600;7.318;2023-02-28T08:39:28;103072.65;;;2.25;82.41
47811;BME280;33575;52.600;7.318;2023-02-28T08:42:04;103076.60;;;2.28;82.22
47811;BME280;33575;52.600;7.318;2023-02-28T08:44:30;103078.67;;;2.33;82.08
47811;BME280;33575;52.600;7.318;2023-02-28T08:47:00;103081.54;;;2.41;82.74
47811;BME280;33575;52.600;7.318;2023-02-28T08:49:31;103080.04;;;2.49;82.10
47811;BME280;33575;52.600;7.318;2023-02-28T08:52:02;103085.19;;;2.49;81.08
47811;BME280;33575;52.600;7.318;2023-02-28T08:54:33;103085.70;;;2.53;80.36
47811;BME280;33575;52.600;7.318;2023-02-28T08:57:04;103088.20;;;2.56;80.86
47811;BME280;33575;52.600;7.318;2023-02-28T08:59:35;103088.13;;;2.55;79.55
47811;BME280;33575;52.600;7.318;2023-02-28T09:02:05;103090.54;;;2.62;80.36
47811;BME280;33575;52.600;7.318;2023-02-28T09:04:36;103088.67;;;2.63;79.81
47811;BME280;33575;52.600;7.318;2023-02-28T09:07:07;103086.51;;;2.71;79.63
47811;BME280;33575;52.600;7.318;2023-02-28T09:09:38;103086.21;;;2.78;80.23
47811;BME280;33575;52.600;7.318;2023-02-28T09:12:09;103087.02;;;2.79;78.56
47811;BME280;33575;52.600;7.318;2023-02-28T09:14:39;103088.72;;;2.87;77.93
47811;BME280;33575;52.600;7.318;2023-02-28T09:17:10;103086.32;;;2.90;76.17
47811;BME280;33575;52.600;7.318;2023-02-28T09:19:41;103085.84;;;2.91;76.33
47811;BME280;33575;52.600;7.318;2023-02-28T09:22:12;103084.21;;;2.96;76.20
47811;BME280;33575;52.600;7.318;2023-02-28T09:24:43;103084.19;;;3.02;77.52
47811;BME280;33575;52.600;7.318;2023-02-28T09:27:13;103082.51;;;3.00;77.20
47811;BME280;33575;52.600;7.318;2023-02-28T09:29:44;103079.36;;;3.00;76.74
47811;BME280;33575;52.600;7.318;2023-02-28T09:32:15;103080.10;;;2.98;75.70
47811;BME280;33575;52.600;7.318;2023-02-28T09:34:46;103078.10;;;3.06;77.08
47811;BME280;33575;52.600;7.318;2023-02-28T09:37:17;103075.54;;;3.12;74.79
47811;BME280;33575;52.600;7.318;2023-02-28T09:39:47;103076.65;;;3.24;76.43
47811;BME280;33575;52.600;7.318;2023-02-28T09:42:25;103076.65;;;3.25;73.46
47811;BME280;33575;52.600;7.318;2023-02-28T09:44:50;103076.93;;;3.30;73.43
47811;BME280;33575;52.600;7.318;2023-02-28T09:47:27;103075.01;;;3.38;73.46
47811;BME280;33575;52.600;7.318;2023-02-28T09:49:51;103074.06;;;3.43;72.58
47811;BME280;33575;52.600;7.318;2023-02-28T09:52:27;103071.56;;;3.45;75.08
47811;BME280;33575;52.600;7.318;2023-02-28T09:54:52;103068.45;;;3.50;72.93
47811;BME280;33575;52.600;7.318;2023-02-28T09:57:31;103070.87;;;3.67;70.61
47811;BME280;33575;52.600;7.318;2023-02-28T10:00:03;103071.14;;;3.96;74.13
47811;BME280;33575;52.600;7.318;2023-02-28T10:05:02;103068.16;;;4.46;74.48
47811;BME280;33575;52.600;7.318;2023-02-28T10:07:36;103072.33;;;4.67;75.30
47811;BME280;33575;52.600;7.318;2023-02-28T10:09:59;103071.85;;;4.80;70.43
47811;BME280;33575;52.600;7.318;2023-02-28T10:12:28;103070.36;;;5.06;70.62
47811;BME280;33575;52.600;7.318;2023-02-28T10:14:59;103074.00;;;5.38;72.10
47811;BME280;33575;52.600;7.318;2023-02-28T10:17:36;103076.41;;;5.63;71.18
47811;BME280;33575;52.600;7.318;2023-02-28T10:20:02;103073.35;;;5.92;72.71
47811;BME280;33575;52.600;7.318;2023-02-28T10:22:35;103074.77;;;6.21;72.42
47811;BME280;33575;52.600;7.318;2023-02-28T10:25:10;103076.64;;;6.39;69.43
47811;BME280;33575;52.600;7.318;2023-02-28T10:27:32;103076.06;;;6.45;69.97
47811;BME280;33575;52.600;7.318;2023-02-28T10:30:03;103072.71;;;6.22;67.64
47811;BME280;33575;52.600;7.318;2023-02-28T10:32:34;103070.01;;;6.30;69.85
47811;BME280;33575;52.600;7.318;2023-02-28T10:35:14;103065.76;;;6.28;64.96
47811;BME280;33575;52.600;7.318;2023-02-28T10:37:34;103068.99;;;6.46;69.20
47811;BME280;33575;52.600;7.318;2023-02-28T10:40:06;103067.66;;;6.49;63.27
47811;BME280;33575;52.600;7.318;2023-02-28T10:42:35;103070.94;;;6.59;65.51
47811;BME280;33575;52.600;7.318;2023-02-28T10:45:11;103074.96;;;6.72;68.07
47811;BME280;33575;52.600;7.318;2023-02-28T10:47:42;103075.76;;;6.71;60.34
47811;BME280;33575;52.600;7.318;2023-02-28T10:52:39;103077.34;;;6.59;62.72
47811;BME280;33575;52.600;7.318;2023-02-28T10:55:14;103075.91;;;6.81;67.54
47811;BME280;33575;52.600;7.318;2023-02-28T10:57:39;103074.36;;;7.08;67.19
47811;BME280;33575;52.600;7.318;2023-02-28T11:00:15;103078.38;;;7.34;67.60
47811;BME280;33575;52.600;7.318;2023-02-28T11:02:40;103073.89;;;7.34;63.38
47811;BME280;33575;52.600;7.318;2023-02-28T11:07:51;103064.77;;;7.16;62.42
47811;BME280;33575;52.600;7.318;2023-02-28T11:10:18;103067.18;;;7.19;62.94
47811;BME280;33575;52.600;7.318;2023-02-28T11:12:48;103065.48;;;7.07;58.88
47811;BME280;33575;52.600;7.318;2023-02-28T11:15:22;103061.03;;;6.90;59.89
47811;BME280;33575;52.600;7.318;2023-02-28T11:17:44;103052.11;;;6.78;61.30
47811;BME280;33575;52.600;7.318;2023-02-28T11:20:20;103053.14;;;6.83;62.12
47811;BME280;33575;52.600;7.318;2023-02-28T11:22:46;103043.14;;;6.90;61.29
47811;BME280;33575;52.600;7.318;2023-02-28T11:25:20;103032.13;;;6.89;60.31
47811;BME280;33575;52.600;7.318;2023-02-28T11:27:48;103041.00;;;6.89;62.69
47811;BME280;33575;52.600;7.318;2023-02-28T11:30:24;103036.33;;;6.93;60.63
47811;BME280;33575;52.600;7.318;2023-02-28T11:32:48;103032.63;;;6.96;59.72
47811;BME280;33575;52.600;7.318;2023-02-28T11:35:25;103035.37;;;6.94;62.23
47811;BME280;33575;52.600;7.318;2023-02-28T11:37:49;103034.70;;;6.94;62.23
47811;BME280;33575;52.600;7.318;2023-02-28T11:40:26;103035.88;;;6.99;61.85
47811;BME280;33575;52.600;7.318;2023-02-28T11:42:59;103030.33;;;6.97;59.71
47811;BME280;33575;52.600;7.318;2023-02-28T11:45:34;103026.60;;;6.77;59.91
47811;BME280;33575;52.600;7.318;2023-02-28T11:47:58;103026.74;;;6.74;60.04
47811;BME280;33575;52.600;7.318;2023-02-28T11:50:33;103026.10;;;6.72;60.70
47811;BME280;33575;52.600;7.318;2023-02-28T11:52:54;103026.22;;;6.57;59.64
47811;BME280;33575;52.600;7.318;2023-02-28T11:55:26;103025.71;;;6.65;61.81
47811;BME280;33575;52.600;7.318;2023-02-28T11:58:03;103022.78;;;6.57;60.71
47811;BME280;33575;52.600;7.318;2023-02-28T12:00:38;103025.34;;;6.59;62.08
47811;BME280;33575;52.600;7.318;2023-02-28T12:03:04;103025.49;;;6.63;62.40
47811;BME280;33575;52.600;7.318;2023-02-28T12:05:31;103022.07;;;6.67;61.59
47811;BME280;33575;52.600;7.318;2023-02-28T12:08:05;103006.81;;;6.61;60.31
47811;BME280;33575;52.600;7.318;2023-02-28T12:10:29;103019.06;;;6.65;60.16
47811;BME280;33575;52.600;7.318;2023-02-28T12:13:08;103012.83;;;6.68;60.65
47811;BME280;33575;52.600;7.318;2023-02-28T12:15:43;103011.65;;;6.64;60.33
47811;BME280;33575;52.600;7.318;2023-02-28T12:18:12;103008.31;;;6.62;61.60
47811;BME280;33575;52.600;7.318;2023-02-28T12:20:34;103003.89;;;6.69;60.58
47811;BME280;33575;52.600;7.318;2023-02-28T12:25:42;102997.19;;;6.76;59.51
47811;BME280;33575;52.600;7.318;2023-02-28T12:28:02;102993.77;;;6.66;58.29
47811;BME280;33575;52.600;7.318;2023-02-28T12:30:35;102989.59;;;6.63;58.59
47811;BME280;33575;52.600;7.318;2023-02-28T12:33:06;102984.40;;;6.64;59.69
47811;BME280;33575;52.600;7.318;2023-02-28T12:35:37;102980.24;;;6.57;60.16
47811;BME280;33575;52.600;7.318;2023-02-28T12:38:10;102980.04;;;6.59;59.78
47811;BME280;33575;52.600;7.318;2023-02-28T12:40:44;102981.23;;;6.62;60.57
47811;BME280;33575;52.600;7.318;2023-02-28T12:43:07;102978.57;;;6.62;59.18
47811;BME280;33575;52.600;7.318;2023-02-28T12:45:41;102974.02;;;6.56;57.59
47811;BME280;33575;52.600;7.318;2023-02-28T12:48:10;102972.91;;;6.65;57.41
47811;BME280;33575;52.600;7.318;2023-02-28T12:50:38;102965.57;;;6.73;58.72
47811;BME280;33575;52.600;7.318;2023-02-28T12:53:13;102966.31;;;6.53;56.18
47811;BME280;33575;52.600;7.318;2023-02-28T12:55:43;102965.81;;;6.64;58.70
47811;BME280;33575;52.600;7.318;2023-02-28T12:58:14;102963.43;;;6.62;58.24
47811;BME280;33575;52.600;7.318;2023-02-28T13:00:48;102956.67;;;6.62;59.22
47811;BME280;33575;52.600;7.318;2023-02-28T13:08:27;102948.85;;;6.12;55.97
47811;BME280;33575;52.600;7.318;2023-02-28T13:10:45;102942.36;;;6.02;57.69
47811;BME280;33575;52.600;7.318;2023-02-28T13:13:16;102941.23;;;5.94;58.18
47811;BME280;33575;52.600;7.318;2023-02-28T13:18:26;102932.60;;;6.13;59.03
47811;BME280;33575;52.600;7.318;2023-02-28T13:20:48;102929.08;;;6.27;58.22
47811;BME280;33575;52.600;7.318;2023-02-28T13:25:51;102925.97;;;6.39;58.57
47811;BME280;33575;52.600;7.318;2023-02-28T13:33:25;102929.89;;;6.48;58.48
47811;BME280;33575;52.600;7.318;2023-02-28T13:38:25;102925.73;;;6.64;58.48
47811;BME280;33575;52.600;7.318;2023-02-28T13:40:51;102924.99;;;6.58;58.11
47811;BME280;33575;52.600;7.318;2023-02-28T13:46:04;102925.75;;;6.46;57.70
47811;BME280;33575;52.600;7.318;2023-02-28T13:48:26;102926.31;;;6.45;58.10
47811;BME280;33575;52.600;7.318;2023-02-28T13:50:54;102923.72;;;6.58;58.81
47811;BME280;33575;52.600;7.318;2023-02-28T13:56:03;102921.34;;;6.63;57.77
47811;BME280;33575;52.600;7.318;2023-02-28T13:58:39;102923.63;;;6.69;56.32